sensor_id;sensor_type;location;lat;lon;timestamp;P1;durP1;ratioP1;P2;durP2;ratioP2
52438;SDS011;38359;53.150;6.504;2022-10-13T00:08:17;36.75;;;15.18;;
52438;SDS011;38359;53.150;6.504;2022-10-13T00:18:46;39.05;;;14.88;;
52438;SDS011;38359;53.150;6.504;2022-10-13T00:29:12;47.78;;;16.10;;
52438;SDS011;38359;53.150;6.504;2022-10-13T00:39:38;42.50;;;16.38;;
52438;SDS011;38359;53.150;6.504;2022-10-13T00:50:05;36.47;;;15.32;;
52438;SDS011;38359;53.150;6.504;2022-10-13T01:00:36;41.00;;;16.65;;
52438;SDS011;38359;53.150;6.504;2022-10-13T01:43:30;42.85;;;17.08;;
52438;SDS011;38359;53.150;6.504;2022-10-13T01:54:02;39.58;;;17.05;;
52438;SDS011;38359;53.150;6.504;2022-10-13T02:15:09;40.58;;;17.00;;
52438;SDS011;38359;53.150;6.504;2022-10-13T02:25:42;39.50;;;17.57;;
52438;SDS011;38359;53.150;6.504;2022-10-13T02:36:08;40.30;;;19.10;;
52438;SDS011;38359;53.150;6.504;2022-10-13T02:46:34;40.55;;;19.58;;
52438;SDS011;38359;53.150;6.504;2022-10-13T02:57:00;49.15;;;19.42;;
52438;SDS011;38359;53.150;6.504;2022-10-13T03:07:26;44.65;;;20.17;;
52438;SDS011;38359;53.150;6.504;2022-10-13T03:17:52;45.75;;;20.67;;
52438;SDS011;38359;53.150;6.504;2022-10-13T03:28:17;40.88;;;20.30;;
52438;SDS011;38359;53.150;6.504;2022-10-13T03:38:43;44.47;;;21.20;;
52438;SDS011;38359;53.150;6.504;2022-10-13T03:49:10;50.63;;;22.63;;
52438;SDS011;38359;53.150;6.504;2022-10-13T03:59:37;48.88;;;24.90;;
52438;SDS011;38359;53.150;6.504;2022-10-13T04:10:05;50.75;;;25.00;;
52438;SDS011;38359;53.150;6.504;2022-10-13T04:20:34;57.45;;;26.90;;
52438;SDS011;38359;53.150;6.504;2022-10-13T04:31:03;62.05;;;28.23;;
52438;SDS011;38359;53.150;6.504;2022-10-13T04:41:29;54.65;;;26.25;;
52438;SDS011;38359;53.150;6.504;2022-10-13T04:51:55;61.60;;;27.40;;
52438;SDS011;38359;53.150;6.504;2022-10-13T05:02:21;58.45;;;29.38;;
52438;SDS011;38359;53.150;6.504;2022-10-13T05:12:46;64.88;;;28.15;;
52438;SDS011;38359;53.150;6.504;2022-10-13T05:23:13;65.63;;;29.92;;
52438;SDS011;38359;53.150;6.504;2022-10-13T05:33:39;65.63;;;32.70;;
52438;SDS011;38359;53.150;6.504;2022-10-13T05:44:06;72.75;;;33.90;;
52438;SDS011;38359;53.150;6.504;2022-10-13T05:54:42;69.18;;;33.63;;
52438;SDS011;38359;53.150;6.504;2022-10-13T06:05:13;91.70;;;38.33;;
52438;SDS011;38359;53.150;6.504;2022-10-13T06:15:43;86.78;;;38.92;;
52438;SDS011;38359;53.150;6.504;2022-10-13T06:26:08;84.55;;;37.20;;
52438;SDS011;38359;53.150;6.504;2022-10-13T06:36:34;80.25;;;38.63;;
52438;SDS011;38359;53.150;6.504;2022-10-13T06:47:00;73.45;;;37.47;;
52438;SDS011;38359;53.150;6.504;2022-10-13T06:57:28;76.07;;;36.88;;
52438;SDS011;38359;53.150;6.504;2022-10-13T07:07:54;94.00;;;39.38;;
52438;SDS011;38359;53.150;6.504;2022-10-13T07:18:19;75.18;;;38.20;;
52438;SDS011;38359;53.150;6.504;2022-10-13T07:28:45;78.03;;;39.13;;
52438;SDS011;38359;53.150;6.504;2022-10-13T07:39:11;71.57;;;35.33;;
52438;SDS011;38359;53.150;6.504;2022-10-13T07:49:37;72.75;;;34.35;;
52438;SDS011;38359;53.150;6.504;2022-10-13T08:00:03;72.57;;;36.30;;
52438;SDS011;38359;53.150;6.504;2022-10-13T08:10:30;62.95;;;34.35;;
52438;SDS011;38359;53.150;6.504;2022-10-13T08:20:58;74.03;;;35.50;;
52438;SDS011;38359;53.150;6.504;2022-10-13T08:31:25;73.45;;;35.78;;
52438;SDS011;38359;53.150;6.504;2022-10-13T08:41:51;71.90;;;35.80;;
52438;SDS011;38359;53.150;6.504;2022-10-13T08:52:19;74.50;;;39.47;;
52438;SDS011;38359;53.150;6.504;2022-10-13T09:02:49;74.95;;;38.60;;
52438;SDS011;38359;53.150;6.504;2022-10-13T09:13:15;84.32;;;41.33;;
52438;SDS011;38359;53.150;6.504;2022-10-13T09:23:42;84.03;;;42.97;;
52438;SDS011;38359;53.150;6.504;2022-10-13T09:44:42;84.82;;;42.28;;
52438;SDS011;38359;53.150;6.504;2022-10-13T10:06:00;101.38;;;53.58;;
52438;SDS011;38359;53.150;6.504;2022-10-13T10:16:43;83.70;;;43.60;;
52438;SDS011;38359;53.150;6.504;2022-10-13T10:27:20;84.07;;;42.28;;
52438;SDS011;38359;53.150;6.504;2022-10-13T10:48:38;71.47;;;39.08;;
52438;SDS011;38359;53.150;6.504;2022-10-13T11:30:50;54.35;;;34.05;;
52438;SDS011;38359;53.150;6.504;2022-10-13T11:41:21;53.28;;;32.30;;
52438;SDS011;38359;53.150;6.504;2022-10-13T12:02:45;50.67;;;33.53;;
52438;SDS011;38359;53.150;6.504;2022-10-13T12:13:18;52.55;;;33.08;;
52438;SDS011;38359;53.150;6.504;2022-10-13T12:23:49;52.70;;;31.33;;
52438;SDS011;38359;53.150;6.504;2022-10-13T12:34:34;59.40;;;31.33;;
52438;SDS011;38359;53.150;6.504;2022-10-13T12:45:01;50.72;;;30.58;;
52438;SDS011;38359;53.150;6.504;2022-10-13T12:55:28;50.60;;;30.65;;
52438;SDS011;38359;53.150;6.504;2022-10-13T13:17:06;52.58;;;29.30;;
52438;SDS011;38359;53.150;6.504;2022-10-13T13:27:40;62.15;;;36.67;;
52438;SDS011;38359;53.150;6.504;2022-10-13T13:38:08;51.47;;;30.85;;
52438;SDS011;38359;53.150;6.504;2022-10-13T13:48:34;43.70;;;29.33;;
52438;SDS011;38359;53.150;6.504;2022-10-13T13:59:00;47.13;;;28.38;;
52438;SDS011;38359;53.150;6.504;2022-10-13T14:09:26;48.05;;;27.23;;
52438;SDS011;38359;53.150;6.504;2022-10-13T14:19:51;44.40;;;26.58;;
52438;SDS011;38359;53.150;6.504;2022-10-13T14:30:17;50.67;;;27.33;;
52438;SDS011;38359;53.150;6.504;2022-10-13T14:40:43;42.60;;;25.20;;
52438;SDS011;38359;53.150;6.504;2022-10-13T14:51:10;42.50;;;26.55;;
52438;SDS011;38359;53.150;6.504;2022-10-13T15:02:00;52.00;;;29.02;;
52438;SDS011;38359;53.150;6.504;2022-10-13T15:12:27;50.15;;;30.15;;
52438;SDS011;38359;53.150;6.504;2022-10-13T15:22:53;49.10;;;29.95;;
52438;SDS011;38359;53.150;6.504;2022-10-13T15:33:19;49.35;;;29.00;;
52438;SDS011;38359;53.150;6.504;2022-10-13T15:43:45;60.63;;;30.23;;
52438;SDS011;38359;53.150;6.504;2022-10-13T15:54:11;50.83;;;31.08;;
52438;SDS011;38359;53.150;6.504;2022-10-13T16:04:37;47.50;;;30.55;;
52438;SDS011;38359;53.150;6.504;2022-10-13T16:15:06;48.30;;;29.70;;
52438;SDS011;38359;53.150;6.504;2022-10-13T16:25:33;51.15;;;31.10;;
52438;SDS011;38359;53.150;6.504;2022-10-13T16:36:06;55.72;;;33.10;;
52438;SDS011;38359;53.150;6.504;2022-10-13T16:46:35;56.50;;;32.92;;
52438;SDS011;38359;53.150;6.504;2022-10-13T16:57:01;61.92;;;33.50;;
52438;SDS011;38359;53.150;6.504;2022-10-13T17:07:27;79.78;;;46.72;;
52438;SDS011;38359;53.150;6.504;2022-10-13T17:17:53;57.20;;;36.05;;
52438;SDS011;38359;53.150;6.504;2022-10-13T17:28:19;75.68;;;42.17;;
52438;SDS011;38359;53.150;6.504;2022-10-13T17:38:45;51.88;;;33.78;;
52438;SDS011;38359;53.150;6.504;2022-10-13T17:49:13;56.28;;;33.10;;
52438;SDS011;38359;53.150;6.504;2022-10-13T17:59:39;56.35;;;35.08;;
52438;SDS011;38359;53.150;6.504;2022-10-13T18:10:05;53.03;;;34.40;;
52438;SDS011;38359;53.150;6.504;2022-10-13T18:20:34;65.80;;;38.72;;
52438;SDS011;38359;53.150;6.504;2022-10-13T18:31:05;92.65;;;46.83;;
52438;SDS011;38359;53.150;6.504;2022-10-13T18:41:40;87.25;;;47.13;;
52438;SDS011;38359;53.150;6.504;2022-10-13T18:52:06;96.72;;;48.17;;
52438;SDS011;38359;53.150;6.504;2022-10-13T19:02:32;92.47;;;47.63;;
52438;SDS011;38359;53.150;6.504;2022-10-13T19:12:58;90.35;;;47.95;;
52438;SDS011;38359;53.150;6.504;2022-10-13T19:23:24;115.97;;;53.92;;
52438;SDS011;38359;53.150;6.504;2022-10-13T19:33:50;105.43;;;51.30;;
52438;SDS011;38359;53.150;6.504;2022-10-13T19:44:16;138.93;;;57.22;;
52438;SDS011;38359;53.150;6.504;2022-10-13T19:54:43;97.78;;;49.83;;
52438;SDS011;38359;53.150;6.504;2022-10-13T20:05:09;119.22;;;54.67;;
52438;SDS011;38359;53.150;6.504;2022-10-13T20:15:39;100.40;;;50.58;;
52438;SDS011;38359;53.150;6.504;2022-10-13T20:26:07;110.85;;;55.72;;
52438;SDS011;38359;53.150;6.504;2022-10-13T20:36:36;120.95;;;57.08;;
52438;SDS011;38359;53.150;6.504;2022-10-13T20:47:02;92.55;;;48.25;;
52438;SDS011;38359;53.150;6.504;2022-10-13T20:57:28;116.15;;;51.00;;
52438;SDS011;38359;53.150;6.504;2022-10-13T21:07:53;78.95;;;41.97;;
52438;SDS011;38359;53.150;6.504;2022-10-13T21:18:19;75.53;;;37.58;;
52438;SDS011;38359;53.150;6.504;2022-10-13T21:28:45;71.55;;;41.17;;
52438;SDS011;38359;53.150;6.504;2022-10-13T21:39:14;79.43;;;46.22;;
52438;SDS011;38359;53.150;6.504;2022-10-13T21:49:40;88.85;;;47.40;;
52438;SDS011;38359;53.150;6.504;2022-10-13T22:00:06;81.47;;;43.47;;
52438;SDS011;38359;53.150;6.504;2022-10-13T22:10:33;85.90;;;44.15;;
52438;SDS011;38359;53.150;6.504;2022-10-13T22:21:00;94.65;;;46.35;;
52438;SDS011;38359;53.150;6.504;2022-10-13T22:31:28;85.63;;;43.17;;
52438;SDS011;38359;53.150;6.504;2022-10-13T22:41:54;107.50;;;46.97;;
52438;SDS011;38359;53.150;6.504;2022-10-13T22:52:20;87.95;;;43.83;;
52438;SDS011;38359;53.150;6.504;2022-10-13T23:02:46;100.00;;;45.88;;
52438;SDS011;38359;53.150;6.504;2022-10-13T23:13:11;106.85;;;47.80;;
52438;SDS011;38359;53.150;6.504;2022-10-13T23:23:37;126.85;;;48.50;;
52438;SDS011;38359;53.150;6.504;2022-10-13T23:34:03;91.90;;;44.63;;
52438;SDS011;38359;53.150;6.504;2022-10-13T23:44:29;137.75;;;48.72;;
52438;SDS011;38359;53.150;6.504;2022-10-13T23:54:55;622.70;;;72.15;;
